createdAt,value
2023-04-15T00:00:17.666Z,99008.84
2023-04-15T00:03:19.542Z,99002.69
2023-04-15T00:06:21.631Z,99008.81
2023-04-15T00:09:23.280Z,99003.53
2023-04-15T00:12:25.432Z,99004.38
2023-04-15T00:15:28.470Z,99005.22
2023-04-15T00:18:30.160Z,98999.06
2023-04-15T00:21:31.811Z,98998.22
2023-04-15T00:24:33.560Z,98988.56
2023-04-15T00:27:35.285Z,99001.75
2023-04-15T00:30:38.515Z,99000.88
2023-04-15T00:33:40.461Z,99005.25
2023-04-15T00:36:42.426Z,99003.47
2023-04-15T00:39:44.089Z,99006.97
2023-04-15T00:42:45.993Z,99005.22
2023-04-15T00:45:51.893Z,98992.94
2023-04-15T00:48:55.161Z,99001.72
2023-04-15T00:51:56.913Z,99004.31
2023-04-15T00:54:58.703Z,99003.44
2023-04-15T00:58:00.381Z,98992.00
2023-04-15T01:01:04.365Z,98997.31
2023-04-15T01:04:06.095Z,98996.41
2023-04-15T01:07:07.745Z,98996.41
2023-04-15T01:10:10.039Z,98995.53
2023-04-15T01:13:11.756Z,98996.38
2023-04-15T01:16:14.832Z,98996.41
2023-04-15T01:19:17.436Z,98992.06
2023-04-15T01:22:19.341Z,98992.94
2023-04-15T01:25:31.213Z,98992.06
2023-04-15T01:28:32.944Z,98997.31
2023-04-15T01:31:34.683Z,98995.50
2023-04-15T01:34:36.892Z,98997.31
2023-04-15T01:37:38.922Z,99003.47
2023-04-15T01:40:41.944Z,99002.59
2023-04-15T01:43:43.533Z,99006.09
2023-04-15T01:46:45.243Z,98999.97
2023-04-15T01:49:46.931Z,99011.41
2023-04-15T01:52:48.826Z,99010.50
2023-04-15T01:55:52.487Z,99007.00
2023-04-15T01:58:54.417Z,99007.03
2023-04-15T02:01:56.113Z,99008.78
2023-04-15T02:04:57.797Z,99010.56
2023-04-15T02:07:59.403Z,99014.03
2023-04-15T02:11:02.443Z,99016.69
2023-04-15T02:14:04.321Z,99014.06
2023-04-15T02:17:05.945Z,99013.19
2023-04-15T02:20:09.464Z,99017.59
2023-04-15T02:23:11.421Z,99013.19
2023-04-15T02:26:14.565Z,99011.44
2023-04-15T02:29:16.188Z,99006.16
2023-04-15T02:32:18.127Z,99009.63
2023-04-15T02:35:19.797Z,99008.75
2023-04-15T02:38:21.705Z,99003.47
2023-04-15T02:41:24.765Z,99005.19
2023-04-15T02:44:26.450Z,99010.47
2023-04-15T02:47:28.437Z,99004.28
2023-04-15T02:50:30.144Z,99006.88
2023-04-15T02:53:32.041Z,99011.25
2023-04-15T02:56:35.021Z,99014.81
2023-04-15T02:59:36.712Z,99023.59
2023-04-15T03:02:39.712Z,99020.97
2023-04-15T03:05:41.745Z,99025.38
2023-04-15T03:08:43.737Z,99027.13
2023-04-15T03:11:47.212Z,99023.59
2023-04-15T03:14:49.447Z,99019.16
2023-04-15T03:17:51.254Z,99017.34
2023-04-15T03:20:53.023Z,99026.19
2023-04-15T03:23:54.902Z,99019.19
2023-04-15T03:26:58.044Z,99015.72
2023-04-15T03:29:59.684Z,99010.41
2023-04-15T03:33:01.499Z,99010.44
2023-04-15T03:36:03.510Z,99018.34
2023-04-15T03:39:05.294Z,99010.44
2023-04-15T03:42:08.418Z,99015.72
2023-04-15T03:45:11.087Z,99023.63
2023-04-15T03:48:17.919Z,99013.97
2023-04-15T03:51:20.242Z,99013.97
2023-04-15T03:54:22.405Z,99006.94
2023-04-15T03:57:25.397Z,99008.69
2023-04-15T04:00:27.059Z,99013.13
2023-04-15T04:03:28.953Z,99013.13
2023-04-15T04:06:30.852Z,99015.75
2023-04-15T04:09:32.872Z,99011.31
2023-04-15T04:12:36.226Z,99005.19
2023-04-15T04:15:38.334Z,99004.28
2023-04-15T04:18:40.031Z,99008.69
2023-04-15T04:21:41.738Z,99011.25
2023-04-15T04:24:43.472Z,99010.38
2023-04-15T04:27:46.523Z,99012.16
2023-04-15T04:30:48.458Z,99013.91
2023-04-15T04:33:50.580Z,99016.56
2023-04-15T04:36:52.481Z,99013.09
2023-04-15T04:39:54.574Z,99013.13
2023-04-15T04:42:58.183Z,99014.00
2023-04-15T04:45:59.928Z,99005.22
2023-04-15T04:49:01.945Z,99018.41
2023-04-15T04:52:03.882Z,99014.88
2023-04-15T04:55:06.244Z,99019.22
2023-04-15T04:58:09.283Z,99016.59
2023-04-15T05:01:11.002Z,99020.94
2023-04-15T05:04:13.107Z,99017.44
2023-04-15T05:07:14.801Z,99006.88
2023-04-15T05:10:16.691Z,99021.78
2023-04-15T05:13:20.028Z,99026.13
2023-04-15T05:16:22.153Z,99020.75
2023-04-15T05:19:24.129Z,99014.50
2023-04-15T05:22:26.070Z,99024.97
2023-04-15T05:25:27.736Z,99030.16
2023-04-15T05:28:30.806Z,99032.88
2023-04-15T05:31:32.603Z,99032.00
2023-04-15T05:34:34.325Z,99032.00
2023-04-15T05:37:36.026Z,99029.34
2023-04-15T05:40:37.721Z,99027.63
2023-04-15T05:43:40.827Z,99039.13
2023-04-15T05:46:42.963Z,99042.66
2023-04-15T05:49:45.017Z,99038.25
2023-04-15T05:52:46.716Z,99040.88
2023-04-15T05:55:48.366Z,99043.53
2023-04-15T05:58:53.379Z,99035.63
2023-04-15T06:01:55.591Z,99046.13
2023-04-15T06:04:57.364Z,99038.94
2023-04-15T06:07:59.047Z,99044.03
2023-04-15T06:11:01.361Z,99043.06
2023-04-15T06:14:04.395Z,99050.84
2023-04-15T06:17:06.075Z,99055.91
2023-04-15T06:20:08.533Z,99055.72
2023-04-15T06:23:10.280Z,99059.97
2023-04-15T06:26:12.228Z,99061.53
2023-04-15T06:29:15.284Z,99056.06
2023-04-15T06:32:17.047Z,99064.78
2023-04-15T06:35:18.916Z,99061.88
2023-04-15T06:38:20.621Z,99063.47
2023-04-15T06:41:22.295Z,99062.19
2023-04-15T06:44:25.661Z,99070.06
2023-04-15T06:47:27.413Z,99075.91
2023-04-15T06:50:29.301Z,99072.28
2023-04-15T06:53:31.115Z,99078.78
2023-04-15T06:56:33.112Z,99076.00
2023-04-15T06:59:36.123Z,99088.22
2023-04-15T07:02:38.064Z,99088.94
2023-04-15T07:05:39.761Z,99086.06
2023-04-15T07:08:41.416Z,99088.56
2023-04-15T07:11:43.341Z,99089.22
2023-04-15T07:14:46.663Z,99087.16
2023-04-15T07:17:48.419Z,99089.88
2023-04-15T07:20:50.104Z,99089.00
2023-04-15T07:23:51.772Z,99089.72
2023-04-15T07:26:53.915Z,99085.94
2023-04-15T07:29:57.150Z,99094.38
2023-04-15T07:32:58.972Z,99098.13
2023-04-15T07:36:00.655Z,99094.59
2023-04-15T07:39:02.869Z,99093.72
2023-04-15T07:42:04.998Z,99094.50
2023-04-15T07:45:09.063Z,99096.00
2023-04-15T07:48:10.696Z,99094.56
2023-04-15T07:51:12.638Z,99101.00
2023-04-15T07:54:14.304Z,99098.09
2023-04-15T07:57:15.945Z,99102.63
2023-04-15T08:00:19.157Z,99102.63
2023-04-15T08:03:21.741Z,99107.69
2023-04-15T08:06:23.699Z,99105.97
2023-04-15T08:09:25.340Z,99110.59
2023-04-15T08:12:27.063Z,99110.34
2023-04-15T08:15:30.123Z,99109.59
2023-04-15T08:18:31.981Z,99109.41
2023-04-15T08:21:33.904Z,99108.28
2023-04-15T08:24:35.571Z,99109.75
2023-04-15T08:27:38.131Z,99112.00
2023-04-15T08:30:41.207Z,99115.19
2023-04-15T08:33:42.949Z,99119.97
2023-04-15T08:36:44.768Z,99115.81
2023-04-15T08:39:46.424Z,99111.34
2023-04-15T08:42:52.966Z,99114.50
2023-04-15T08:45:56.444Z,99115.16
2023-04-15T08:48:59.247Z,99117.03
2023-04-15T08:52:02.454Z,99118.81
2023-04-15T08:55:05.337Z,99113.50
2023-04-15T08:58:08.399Z,99119.28
2023-04-15T09:01:11.989Z,99113.50
2023-04-15T09:04:14.297Z,99124.56
2023-04-15T09:07:16.443Z,99122.16
2023-04-15T09:10:18.517Z,99127.50
2023-04-15T09:13:20.530Z,99131.50
2023-04-15T09:16:23.712Z,99132.34
2023-04-15T09:19:25.706Z,99134.91
2023-04-15T09:22:32.481Z,99138.94
2023-04-15T09:25:35.080Z,99139.50
2023-04-15T09:28:42.474Z,99144.69
2023-04-15T09:31:45.729Z,99151.88
2023-04-15T09:34:47.339Z,99149.78
2023-04-15T09:37:49.356Z,99144.09
2023-04-15T09:40:51.090Z,99150.38
2023-04-15T09:43:53.091Z,99143.13
2023-04-15T09:46:56.379Z,99136.19
2023-04-15T09:49:58.949Z,99129.03
2023-04-15T09:53:03.755Z,99134.03
2023-04-15T09:56:05.993Z,99134.34
2023-04-15T09:59:08.140Z,99136.69
2023-04-15T10:02:13.802Z,99128.59
2023-04-15T10:05:16.422Z,99132.63
2023-04-15T10:08:20.114Z,99142.03
2023-04-15T10:11:24.164Z,99141.25
2023-04-15T10:14:29.831Z,99145.97
2023-04-15T10:17:34.278Z,99150.59
2023-04-15T10:20:36.914Z,99145.53
2023-04-15T10:23:39.794Z,99142.94
2023-04-15T10:26:42.620Z,99140.88
2023-04-15T10:29:44.564Z,99130.72
2023-04-15T10:32:48.361Z,99129.72
2023-04-15T10:35:51.722Z,99138.28
2023-04-15T10:38:53.366Z,99131.44
2023-04-15T10:42:08.952Z,99146.69
2023-04-15T10:45:17.039Z,99154.38
2023-04-15T10:48:20.100Z,99149.00
2023-04-15T10:51:31.798Z,99157.81
2023-04-15T10:54:33.518Z,99154.16
2023-04-15T10:57:37.608Z,99160.44
2023-04-15T11:00:39.263Z,99169.72
2023-04-15T11:03:43.658Z,99167.69
2023-04-15T11:06:45.599Z,99171.09
2023-04-15T11:09:47.446Z,99178.47
2023-04-15T11:12:52.229Z,99184.88
2023-04-15T11:15:57.588Z,99175.47
2023-04-15T11:19:01.075Z,99183.19
2023-04-15T11:22:07.353Z,99179.19
2023-04-15T11:25:09.107Z,99183.31
2023-04-15T11:28:11.936Z,99180.53
2023-04-15T11:31:15.343Z,99181.91
2023-04-15T11:34:23.940Z,99178.13
2023-04-15T11:37:29.208Z,99176.91
2023-04-15T11:40:31.537Z,99175.22
2023-04-15T11:43:33.209Z,99178.13
2023-04-15T11:46:34.947Z,99180.63
2023-04-15T11:49:37.969Z,99184.91
2023-04-15T11:52:39.658Z,99188.63
2023-04-15T11:55:42.896Z,99195.91
2023-04-15T11:58:44.618Z,99189.44
2023-04-15T12:01:46.345Z,99187.16
2023-04-15T12:04:49.468Z,99191.00
2023-04-15T12:08:00.696Z,99197.28
2023-04-15T12:11:02.480Z,99194.38
2023-04-15T12:14:07.105Z,99191.03
2023-04-15T12:17:10.877Z,99187.09
2023-04-15T12:20:13.958Z,99186.91
2023-04-15T12:23:19.594Z,99187.16
2023-04-15T12:26:27.468Z,99190.34
2023-04-15T12:29:30.522Z,99181.31
2023-04-15T12:32:35.632Z,99193.13
2023-04-15T12:35:39.876Z,99197.56
2023-04-15T12:38:41.978Z,99179.31
2023-04-15T12:41:43.852Z,99192.63
2023-04-15T12:44:45.791Z,99201.56
2023-04-15T12:47:47.421Z,99211.78
2023-04-15T12:50:50.453Z,99207.88
2023-04-15T12:53:52.060Z,99211.75
2023-04-15T12:56:54.271Z,99217.19
2023-04-15T12:59:55.961Z,99218.22
2023-04-15T13:02:57.701Z,99221.97
2023-04-15T13:06:00.857Z,99225.22
2023-04-15T13:09:04.600Z,99227.72
2023-04-15T13:12:07.692Z,99229.06
2023-04-15T13:15:10.416Z,99227.66
2023-04-15T13:18:12.100Z,99227.44
2023-04-15T13:21:15.180Z,99223.91
2023-04-15T13:24:17.126Z,99231.19
2023-04-15T13:27:20.962Z,99226.56
2023-04-15T13:30:22.709Z,99229.19
2023-04-15T13:33:24.326Z,99236.09
2023-04-15T13:36:27.678Z,99231.63
2023-04-15T13:39:29.822Z,99242.66
2023-04-15T13:42:32.092Z,99229.66
2023-04-15T13:45:33.831Z,99234.69
2023-04-15T13:48:35.727Z,99238.81
2023-04-15T13:51:39.018Z,99237.09
2023-04-15T13:54:40.698Z,99242.75
2023-04-15T13:57:42.631Z,99244.59
2023-04-15T14:00:44.520Z,99247.88
2023-04-15T14:03:46.682Z,99249.94
2023-04-15T14:06:49.795Z,99249.72
2023-04-15T14:09:51.484Z,99251.88
2023-04-15T14:12:53.493Z,99239.69
2023-04-15T14:15:56.613Z,99258.44
2023-04-15T14:18:58.967Z,99256.50
2023-04-15T14:22:02.289Z,99251.81
2023-04-15T14:25:04.705Z,99249.03
2023-04-15T14:28:06.595Z,99260.44
2023-04-15T14:31:08.750Z,99263.44
2023-04-15T14:34:10.699Z,99247.00
2023-04-15T14:37:14.200Z,99265.09
2023-04-15T14:40:16.066Z,99266.13
2023-04-15T14:43:18.267Z,99265.44
2023-04-15T14:46:20.174Z,99265.75
2023-04-15T14:49:22.148Z,99280.84
2023-04-15T14:52:25.238Z,99281.88
2023-04-15T14:55:27.253Z,99279.91
2023-04-15T14:58:29.199Z,99284.22
2023-04-15T15:01:31.818Z,99289.47
2023-04-15T15:04:34.663Z,99285.22
2023-04-15T15:07:39.617Z,99288.88
2023-04-15T15:10:48.524Z,99287.03
2023-04-15T15:13:51.513Z,99286.00
2023-04-15T15:16:53.485Z,99290.34
2023-04-15T15:19:55.464Z,99298.06
2023-04-15T15:22:58.796Z,99289.25
2023-04-15T15:26:00.882Z,99287.44
2023-04-15T15:29:02.657Z,99289.44
2023-04-15T15:32:04.829Z,99293.09
2023-04-15T15:35:07.137Z,99297.63
2023-04-15T15:38:11.902Z,99300.38
2023-04-15T15:41:13.810Z,99308.41
2023-04-15T15:44:15.581Z,99311.31
2023-04-15T15:47:17.306Z,99318.31
2023-04-15T15:50:19.205Z,99320.16
2023-04-15T15:53:22.307Z,99315.88
2023-04-15T15:56:23.954Z,99321.34
2023-04-15T15:59:25.989Z,99326.69
2023-04-15T16:02:52.236Z,99331.97
2023-04-15T16:05:49.355Z,99330.22
2023-04-15T16:08:52.380Z,99323.25
2023-04-15T16:11:54.889Z,99329.44
2023-04-15T16:14:56.883Z,99336.59
2023-04-15T16:17:59.090Z,99331.28
2023-04-15T16:21:01.017Z,99335.72
2023-04-15T16:24:04.361Z,99344.63
2023-04-15T16:27:06.271Z,99345.59
2023-04-15T16:30:09.660Z,99348.34
2023-04-15T16:33:11.638Z,99343.91
2023-04-15T16:36:13.316Z,99355.53
2023-04-15T16:39:16.957Z,99354.66
2023-04-15T16:42:18.783Z,99352.06
2023-04-15T16:45:20.517Z,99353.03
2023-04-15T16:48:22.514Z,99365.47
2023-04-15T16:51:24.378Z,99366.41
2023-04-15T16:54:27.371Z,99366.44
2023-04-15T16:57:36.591Z,99367.38
2023-04-15T17:00:51.550Z,99371.84
2023-04-15T17:03:55.901Z,99380.00
2023-04-15T17:06:57.803Z,99379.13
2023-04-15T17:10:01.374Z,99392.50
2023-04-15T17:13:03.055Z,99404.06
2023-04-15T17:16:05.319Z,99402.38
2023-04-15T17:19:07.209Z,99398.88
2023-04-15T17:22:09.181Z,99401.63
2023-04-15T17:25:14.077Z,99411.28
2023-04-15T17:28:15.990Z,99413.94
2023-04-15T17:31:17.746Z,99415.81
2023-04-15T17:34:19.698Z,99419.41
2023-04-15T17:37:21.584Z,99427.41
2023-04-15T17:40:24.732Z,99416.88
2023-04-15T17:43:27.260Z,99415.13
2023-04-15T17:46:29.759Z,99417.59
2023-04-15T17:49:32.250Z,99412.13
2023-04-15T17:52:34.466Z,99427.97
2023-04-15T17:55:38.466Z,99426.44
2023-04-15T17:58:41.456Z,99428.34
2023-04-15T18:01:43.910Z,99437.41
2023-04-15T18:04:46.992Z,99440.22
2023-04-15T18:07:51.574Z,99437.66
2023-04-15T18:10:55.774Z,99437.75
2023-04-15T18:13:57.991Z,99444.91
2023-04-15T18:16:59.950Z,99445.81
2023-04-15T18:20:03.021Z,99445.91
2023-04-15T18:23:04.866Z,99439.75
2023-04-15T18:26:08.889Z,99451.31
2023-04-15T18:29:12.761Z,99458.44
2023-04-15T18:32:14.569Z,99460.31
2023-04-15T18:35:16.734Z,99471.78
2023-04-15T18:38:19.265Z,99474.50
2023-04-15T18:41:22.932Z,99487.75
2023-04-15T18:44:24.819Z,99486.78
2023-04-15T18:47:30.533Z,99492.97
2023-04-15T18:50:34.401Z,99501.75
2023-04-15T18:53:37.214Z,99506.22
2023-04-15T18:56:40.765Z,99506.19
2023-04-15T18:59:43.481Z,99514.19
2023-04-15T19:02:46.156Z,99522.97
2023-04-15T19:05:48.649Z,99538.84
2023-04-15T19:08:50.408Z,99540.63
2023-04-15T19:11:53.753Z,99548.53
2023-04-15T19:14:56.421Z,99547.66
2023-04-15T19:21:19.235Z,99561.75
2023-04-15T19:24:22.155Z,99557.38
2023-04-15T19:27:26.863Z,99553.97
2023-04-15T19:30:28.538Z,99557.47
2023-04-15T19:33:31.122Z,99561.88
2023-04-15T19:36:34.236Z,99561.94
2023-04-15T19:39:36.547Z,99572.53
2023-04-15T19:42:40.848Z,99574.22
2023-04-15T19:45:43.627Z,99576.06
2023-04-15T19:48:47.195Z,99578.81
2023-04-15T19:51:49.906Z,99577.97
2023-04-15T19:54:52.517Z,99584.16
2023-04-15T19:57:56.556Z,99590.34
2023-04-15T20:00:59.152Z,99591.22
2023-04-15T20:04:01.453Z,99593.00
2023-04-15T20:07:03.699Z,99591.28
2023-04-15T20:10:08.627Z,99589.53
2023-04-15T20:13:17.019Z,99593.03
2023-04-15T20:16:18.963Z,99595.69
2023-04-15T20:19:21.164Z,99597.41
2023-04-15T20:22:23.388Z,99606.19
2023-04-15T20:25:25.436Z,99603.50
2023-04-15T20:28:29.350Z,99605.31
2023-04-15T20:31:31.887Z,99614.13
2023-04-15T20:34:33.994Z,99612.31
2023-04-15T20:37:38.182Z,99613.31
2023-04-15T20:40:41.708Z,99614.19
2023-04-15T20:43:45.504Z,99608.78
2023-04-15T20:46:47.367Z,99622.09
2023-04-15T20:49:50.318Z,99624.75
2023-04-15T20:52:52.542Z,99613.31
2023-04-15T20:55:56.238Z,99624.78
2023-04-15T20:58:59.632Z,99630.91
2023-04-15T21:02:01.807Z,99630.06
2023-04-15T21:05:03.904Z,99638.03
2023-04-15T21:08:06.125Z,99639.81
2023-04-15T21:11:08.378Z,99642.44
2023-04-15T21:14:12.083Z,99643.34
2023-04-15T21:17:13.958Z,99631.88
2023-04-15T21:20:15.643Z,99635.41
2023-04-15T21:23:17.284Z,99637.19
2023-04-15T21:26:19.536Z,99647.72
2023-04-15T21:29:22.919Z,99653.03
2023-04-15T21:32:24.879Z,99652.16
2023-04-15T21:35:26.707Z,99657.44
2023-04-15T21:38:28.389Z,99659.19
2023-04-15T21:41:30.053Z,99664.50
2023-04-15T21:44:33.102Z,99662.75
2023-04-15T21:48:00.781Z,99666.28
2023-04-15T21:50:58.498Z,99664.53
2023-04-15T21:54:00.272Z,99667.19
2023-04-15T21:57:02.089Z,99669.78
2023-04-15T22:00:06.581Z,99668.91
2023-04-15T22:03:08.352Z,99669.81
2023-04-15T22:06:10.102Z,99670.66
2023-04-15T22:09:14.154Z,99669.81
2023-04-15T22:12:16.257Z,99677.72
2023-04-15T22:15:19.257Z,99668.91
2023-04-15T22:18:21.176Z,99670.66
2023-04-15T22:21:23.094Z,99666.25
2023-04-15T22:24:34.047Z,99671.56
2023-04-15T22:27:42.113Z,99675.94
2023-04-15T22:30:45.121Z,99678.59
2023-04-15T22:33:47.203Z,99682.13
2023-04-15T22:36:49.393Z,99678.59
2023-04-15T22:39:51.382Z,99691.81
2023-04-15T22:42:53.022Z,99689.19
2023-04-15T22:45:56.098Z,99697.97
2023-04-15T22:48:57.979Z,99691.78
2023-04-15T22:51:59.701Z,99694.41
2023-04-15T22:55:01.390Z,99695.28
2023-04-15T22:58:03.157Z,99703.22
2023-04-15T23:01:06.260Z,99709.41
2023-04-15T23:04:09.606Z,99706.75
2023-04-15T23:07:27.687Z,99701.47
2023-04-15T23:10:29.422Z,99701.47
2023-04-15T23:13:31.102Z,99702.34
2023-04-15T23:16:34.526Z,99697.97
2023-04-15T23:19:36.398Z,99704.13
2023-04-15T23:22:38.069Z,99697.09
2023-04-15T23:25:39.928Z,99697.94
2023-04-15T23:28:41.621Z,99700.59
2023-04-15T23:31:44.887Z,99699.72
2023-04-15T23:34:46.618Z,99700.63
2023-04-15T23:37:48.247Z,99709.44
2023-04-15T23:40:50.661Z,99707.66
2023-04-15T23:43:52.841Z,99709.44
2023-04-15T23:46:55.928Z,99707.66
2023-04-15T23:49:57.567Z,99710.31
2023-04-15T23:52:59.177Z,99716.47
2023-04-15T23:56:00.767Z,99712.94
2023-04-15T23:59:02.839Z,99712.06
